createdAt,value
2018-05-25T00:00:36.814Z,17.23
2018-05-25T00:03:05.616Z,17.03
2018-05-25T00:05:34.661Z,16.90
2018-05-25T00:08:02.937Z,17.10
2018-05-25T00:10:31.243Z,17.17
2018-05-25T00:13:00.380Z,16.37
2018-05-25T00:15:29.457Z,16.80
2018-05-25T00:17:57.725Z,17.50
2018-05-25T00:20:25.984Z,16.00
2018-05-25T00:22:54.301Z,17.13
2018-05-25T00:25:22.599Z,18.50
2018-05-25T00:27:50.948Z,16.30
2018-05-25T00:30:19.252Z,16.53
2018-05-25T00:32:47.553Z,18.17
2018-05-25T00:35:15.827Z,17.37
2018-05-25T00:37:44.101Z,16.93
2018-05-25T00:40:12.822Z,17.60
2018-05-25T00:42:41.106Z,19.03
2018-05-25T00:45:09.394Z,17.10
2018-05-25T00:47:37.679Z,16.33
2018-05-25T00:50:05.967Z,17.57
2018-05-25T00:52:34.275Z,17.30
2018-05-25T00:55:20.284Z,15.90
2018-05-25T00:57:50.534Z,16.83
2018-05-25T01:00:18.845Z,15.40
2018-05-25T01:02:47.128Z,15.77
2018-05-25T01:05:17.096Z,17.27
2018-05-25T01:07:46.895Z,16.57
2018-05-25T01:10:15.180Z,16.97
2018-05-25T01:12:43.552Z,16.53
2018-05-25T01:15:11.828Z,16.30
2018-05-25T01:17:40.138Z,16.47
2018-05-25T01:20:08.416Z,17.97
2018-05-25T01:22:36.746Z,17.40
2018-05-25T01:25:05.049Z,17.67
2018-05-25T01:27:33.316Z,17.50
2018-05-25T01:30:01.624Z,18.90
2018-05-25T01:32:29.905Z,18.30
2018-05-25T01:34:58.224Z,21.57
2018-05-25T01:37:26.507Z,18.83
2018-05-25T01:39:55.557Z,19.60
2018-05-25T01:42:23.858Z,19.77
2018-05-25T01:44:52.918Z,18.13
2018-05-25T01:47:21.260Z,17.67
2018-05-25T01:49:49.572Z,17.70
2018-05-25T01:52:17.869Z,18.10
2018-05-25T01:54:46.146Z,18.10
2018-05-25T01:57:14.435Z,16.97
2018-05-25T01:59:42.719Z,18.20
2018-05-25T02:02:11.005Z,17.47
2018-05-25T02:04:39.294Z,17.30
2018-05-25T02:07:08.363Z,17.37
2018-05-25T02:09:36.649Z,17.90
2018-05-25T02:12:05.701Z,17.33
2018-05-25T02:14:33.986Z,17.90
2018-05-25T02:17:02.261Z,19.23
2018-05-25T02:19:30.555Z,18.57
2018-05-25T02:21:58.833Z,21.80
2018-05-25T02:24:29.114Z,21.67
2018-05-25T02:26:58.160Z,21.57
2018-05-25T02:29:26.457Z,23.60
2018-05-25T02:31:54.756Z,23.80
2018-05-25T02:34:23.814Z,21.37
2018-05-25T02:36:52.132Z,19.90
2018-05-25T02:39:20.425Z,20.23
2018-05-25T02:41:48.728Z,21.30
2018-05-25T02:44:17.984Z,23.30
2018-05-25T02:46:47.052Z,23.43
2018-05-25T02:49:15.356Z,22.23
2018-05-25T02:51:44.388Z,20.60
2018-05-25T02:54:12.682Z,22.47
2018-05-25T02:56:40.984Z,20.47
2018-05-25T02:59:09.253Z,20.93
2018-05-25T03:01:40.491Z,20.10
2018-05-25T03:04:09.538Z,22.53
2018-05-25T03:06:37.820Z,19.57
2018-05-25T03:09:06.942Z,20.87
2018-05-25T03:11:35.222Z,18.77
2018-05-25T03:14:03.536Z,18.50
2018-05-25T03:16:31.819Z,20.50
2018-05-25T03:19:00.092Z,19.50
2018-05-25T03:21:28.405Z,19.57
2018-05-25T03:23:56.686Z,19.43
2018-05-25T03:26:25.025Z,20.50
2018-05-25T03:28:53.316Z,21.30
2018-05-25T03:31:21.625Z,21.40
2018-05-25T03:33:49.921Z,21.57
2018-05-25T03:36:18.209Z,21.20
2018-05-25T03:38:46.523Z,21.23
2018-05-25T03:41:14.796Z,20.07
2018-05-25T03:43:43.105Z,20.97
2018-05-25T03:46:12.373Z,28.27
2018-05-25T03:48:40.823Z,21.83
2018-05-25T03:51:09.128Z,20.37
2018-05-25T03:53:39.324Z,22.57
2018-05-25T03:56:07.602Z,23.50
2018-05-25T03:58:53.529Z,22.40
2018-05-25T04:01:39.357Z,22.57
2018-05-25T04:04:07.631Z,22.40
2018-05-25T04:06:35.951Z,24.70
2018-05-25T04:09:08.753Z,23.63
2018-05-25T04:11:37.018Z,36.37
2018-05-25T04:14:05.334Z,24.70
2018-05-25T04:16:33.606Z,24.00
2018-05-25T04:19:01.911Z,24.80
2018-05-25T04:21:30.224Z,24.37
2018-05-25T04:23:58.501Z,25.87
2018-05-25T04:26:26.806Z,26.83
2018-05-25T04:28:55.085Z,28.17
2018-05-25T04:31:23.464Z,25.90
2018-05-25T04:33:51.816Z,27.40
2018-05-25T04:36:20.098Z,29.00
2018-05-25T04:38:49.161Z,26.70
2018-05-25T04:41:17.454Z,26.57
2018-05-25T04:43:45.780Z,26.90
2018-05-25T04:46:14.084Z,26.07
2018-05-25T04:48:42.381Z,25.97
2018-05-25T04:51:14.485Z,28.37
2018-05-25T04:53:42.773Z,26.27
2018-05-25T04:56:11.123Z,26.60
2018-05-25T04:58:39.435Z,27.23
2018-05-25T05:01:07.705Z,24.10
2018-05-25T05:03:37.950Z,26.00
2018-05-25T05:06:07.013Z,26.00
2018-05-25T05:08:35.344Z,26.30
2018-05-25T05:11:03.631Z,26.77
2018-05-25T05:13:32.971Z,25.70
2018-05-25T05:16:01.268Z,24.47
2018-05-25T05:18:29.604Z,24.53
2018-05-25T05:20:58.834Z,26.53
2018-05-25T05:23:27.127Z,24.67
2018-05-25T05:25:55.827Z,24.97
2018-05-25T05:28:24.872Z,23.40
2018-05-25T05:30:53.143Z,25.77
2018-05-25T05:33:21.440Z,25.70
2018-05-25T05:35:50.507Z,25.17
2018-05-25T05:38:18.932Z,24.73
2018-05-25T05:40:47.197Z,26.23
2018-05-25T05:43:15.471Z,26.30
2018-05-25T05:45:43.768Z,26.63
2018-05-25T05:48:12.036Z,26.40
2018-05-25T05:50:40.348Z,25.53
2018-05-25T05:53:08.640Z,26.40
2018-05-25T05:55:36.924Z,27.67
2018-05-25T05:58:05.231Z,26.30
2018-05-25T06:00:33.509Z,29.27
2018-05-25T06:03:01.865Z,25.33
2018-05-25T06:05:30.142Z,26.83
2018-05-25T06:07:58.416Z,25.17
2018-05-25T06:10:26.704Z,27.00
2018-05-25T06:12:54.978Z,25.53
2018-05-25T06:15:23.289Z,27.37
2018-05-25T06:17:51.564Z,26.60
2018-05-25T06:20:19.852Z,28.43
2018-05-25T06:22:48.175Z,25.50
2018-05-25T06:25:17.236Z,26.90
2018-05-25T06:27:45.543Z,25.50
2018-05-25T06:30:13.837Z,26.77
2018-05-25T06:32:42.101Z,26.00
2018-05-25T06:35:11.223Z,26.60
2018-05-25T06:37:39.539Z,26.77
2018-05-25T06:40:07.845Z,26.60
2018-05-25T06:42:36.921Z,25.70
2018-05-25T06:45:05.231Z,25.37
2018-05-25T06:47:33.569Z,27.50
2018-05-25T06:50:01.892Z,24.57
2018-05-25T06:52:30.194Z,24.90
2018-05-25T06:54:58.475Z,24.93
2018-05-25T06:57:26.801Z,24.80
2018-05-25T06:59:55.229Z,22.70
2018-05-25T07:02:23.565Z,22.30
2018-05-25T07:04:51.847Z,23.53
2018-05-25T07:07:20.143Z,23.80
2018-05-25T07:09:49.195Z,24.37
2018-05-25T07:12:17.496Z,24.13
2018-05-25T07:14:45.822Z,25.60
2018-05-25T07:17:15.021Z,26.90
2018-05-25T07:19:43.318Z,24.33
2018-05-25T07:22:11.613Z,26.50
2018-05-25T07:24:39.891Z,25.17
2018-05-25T07:27:08.191Z,25.90
2018-05-25T07:29:36.485Z,26.93
2018-05-25T07:32:04.762Z,27.90
2018-05-25T07:34:33.850Z,23.03
2018-05-25T07:37:02.144Z,25.10
2018-05-25T07:39:30.447Z,25.90
2018-05-25T07:41:58.740Z,26.33
2018-05-25T07:44:27.008Z,25.47
2018-05-25T07:46:55.319Z,24.50
2018-05-25T07:49:23.697Z,25.80
2018-05-25T07:51:52.015Z,27.00
2018-05-25T07:54:20.322Z,24.33
2018-05-25T07:56:48.588Z,23.93
2018-05-25T07:59:16.888Z,26.17
2018-05-25T08:01:45.163Z,25.60
2018-05-25T08:04:13.436Z,25.57
2018-05-25T08:06:41.743Z,22.90
2018-05-25T08:09:10.055Z,22.20
2018-05-25T08:11:38.371Z,20.83
2018-05-25T08:14:06.629Z,19.30
2018-05-25T08:16:34.916Z,19.83
2018-05-25T08:19:03.196Z,18.23
2018-05-25T08:21:31.476Z,18.63
2018-05-25T08:23:59.793Z,18.87
2018-05-25T08:26:28.071Z,19.63
2018-05-25T08:28:56.348Z,19.33
2018-05-25T08:31:24.656Z,17.90
2018-05-25T08:33:53.701Z,17.77
2018-05-25T08:36:21.981Z,18.53
2018-05-25T08:38:50.261Z,19.87
2018-05-25T08:41:18.533Z,19.97
2018-05-25T08:43:46.833Z,17.50
2018-05-25T08:46:16.020Z,17.63
2018-05-25T08:48:44.332Z,16.17
2018-05-25T08:51:13.383Z,16.93
2018-05-25T08:53:41.659Z,19.60
2018-05-25T08:56:09.935Z,19.70
2018-05-25T08:58:38.206Z,16.97
2018-05-25T09:01:06.509Z,17.07
2018-05-25T09:03:34.800Z,18.17
2018-05-25T09:06:03.137Z,16.10
2018-05-25T09:08:31.420Z,15.90
2018-05-25T09:10:59.711Z,16.40
2018-05-25T09:13:28.010Z,16.40
2018-05-25T09:15:56.303Z,16.77
2018-05-25T09:18:25.361Z,15.37
2018-05-25T09:20:53.646Z,14.10
2018-05-25T09:23:21.967Z,15.33
2018-05-25T09:25:51.106Z,15.20
2018-05-25T09:28:19.378Z,14.53
2018-05-25T09:30:47.679Z,14.50
2018-05-25T09:33:15.977Z,14.00
2018-05-25T09:35:44.265Z,12.50
2018-05-25T09:38:13.336Z,12.17
2018-05-25T09:40:41.621Z,10.80
2018-05-25T09:43:09.945Z,11.40
2018-05-25T09:45:38.206Z,10.23
2018-05-25T09:48:07.263Z,11.23
2018-05-25T09:50:35.555Z,11.53
2018-05-25T09:53:03.829Z,10.50
2018-05-25T09:55:32.122Z,11.97
2018-05-25T09:58:00.434Z,11.73
2018-05-25T10:00:28.730Z,10.17
2018-05-25T10:02:56.992Z,10.33
2018-05-25T10:05:25.302Z,10.77
2018-05-25T10:07:53.594Z,10.83
2018-05-25T10:10:23.811Z,11.00
2018-05-25T10:12:53.708Z,10.73
2018-05-25T10:15:22.010Z,9.17
2018-05-25T10:17:50.352Z,8.87
2018-05-25T10:20:18.595Z,8.93
2018-05-25T10:22:47.645Z,8.77
2018-05-25T10:25:15.910Z,9.20
2018-05-25T10:27:46.149Z,8.87
2018-05-25T10:30:14.454Z,9.87
2018-05-25T10:32:42.736Z,8.73
2018-05-25T10:35:11.866Z,8.10
2018-05-25T10:37:40.129Z,7.90
2018-05-25T10:40:08.404Z,7.40
2018-05-25T10:42:37.471Z,5.93
2018-05-25T10:45:05.756Z,7.03
2018-05-25T10:47:34.821Z,6.20
2018-05-25T10:50:03.126Z,6.30
2018-05-25T10:52:31.400Z,6.70
2018-05-25T10:54:59.706Z,5.40
2018-05-25T10:57:28.733Z,5.53
2018-05-25T10:59:57.035Z,5.07
2018-05-25T11:02:25.308Z,5.43
2018-05-25T11:04:53.590Z,4.50
2018-05-25T11:07:21.868Z,4.30
2018-05-25T11:09:50.136Z,4.93
2018-05-25T11:12:18.423Z,4.10
2018-05-25T11:14:46.689Z,3.97
2018-05-25T11:17:14.976Z,4.80
2018-05-25T11:19:43.276Z,4.03
2018-05-25T11:22:11.575Z,4.40
2018-05-25T11:24:40.618Z,5.00
2018-05-25T11:27:08.911Z,3.77
2018-05-25T11:29:37.196Z,3.63
2018-05-25T11:32:05.477Z,4.07
2018-05-25T11:34:33.784Z,4.20
2018-05-25T11:37:02.049Z,3.90
2018-05-25T11:39:31.287Z,3.80
2018-05-25T11:41:59.585Z,3.90
2018-05-25T11:44:27.848Z,3.40
2018-05-25T11:46:56.132Z,3.27
2018-05-25T11:49:24.842Z,3.00
2018-05-25T11:51:53.138Z,3.50
2018-05-25T11:54:21.416Z,3.37
2018-05-25T11:56:49.701Z,2.93
2018-05-25T11:59:17.981Z,3.10
2018-05-25T12:01:46.331Z,3.20
2018-05-25T12:04:14.578Z,3.07
2018-05-25T12:06:42.870Z,3.20
2018-05-25T12:09:11.236Z,4.00
2018-05-25T12:11:39.526Z,3.00
2018-05-25T12:14:07.804Z,3.47
2018-05-25T12:16:36.067Z,3.10
2018-05-25T12:19:06.321Z,3.53
2018-05-25T12:21:34.603Z,3.70
2018-05-25T12:24:02.881Z,3.63
2018-05-25T12:26:31.179Z,3.20
2018-05-25T12:28:59.444Z,3.80
2018-05-25T12:31:27.758Z,3.13
2018-05-25T12:33:56.033Z,3.40
2018-05-25T12:36:25.837Z,3.30
2018-05-25T12:38:54.135Z,2.93
2018-05-25T12:41:22.440Z,3.20
2018-05-25T12:43:50.714Z,2.73
2018-05-25T12:46:18.992Z,2.97
2018-05-25T12:48:47.295Z,3.20
2018-05-25T12:51:15.545Z,3.10
2018-05-25T12:53:43.819Z,3.47
2018-05-25T12:56:12.110Z,2.87
2018-05-25T12:58:40.362Z,3.13
2018-05-25T13:01:09.704Z,3.17
2018-05-25T13:03:37.997Z,2.77
2018-05-25T13:06:06.289Z,3.03
2018-05-25T13:08:34.562Z,3.07
2018-05-25T13:11:02.873Z,3.17
2018-05-25T13:13:31.130Z,3.40
2018-05-25T13:16:00.171Z,3.10
2018-05-25T13:18:28.455Z,3.37
2018-05-25T13:20:56.734Z,3.60
2018-05-25T13:23:25.009Z,4.10
2018-05-25T13:25:53.301Z,3.33
2018-05-25T13:28:21.589Z,3.70
2018-05-25T13:30:49.966Z,3.47
2018-05-25T13:33:18.325Z,4.27
2018-05-25T13:35:46.598Z,3.50
2018-05-25T13:38:14.882Z,3.43
2018-05-25T13:40:43.147Z,3.77
2018-05-25T13:43:11.495Z,3.70
2018-05-25T13:45:40.534Z,3.53
2018-05-25T13:48:08.782Z,3.70
2018-05-25T13:50:37.069Z,3.30
2018-05-25T13:53:05.348Z,3.67
2018-05-25T13:55:37.300Z,3.53
2018-05-25T13:58:07.659Z,3.63
2018-05-25T14:00:35.944Z,3.47
2018-05-25T14:03:04.246Z,3.90
2018-05-25T14:05:32.527Z,3.40
2018-05-25T14:08:01.045Z,4.03
2018-05-25T14:10:29.333Z,3.87
2018-05-25T14:12:57.621Z,3.50
2018-05-25T14:15:25.942Z,3.80
2018-05-25T14:17:54.219Z,3.80
2018-05-25T14:20:22.505Z,3.57
2018-05-25T14:22:50.769Z,3.80
2018-05-25T14:25:19.045Z,2.90
2018-05-25T14:27:47.380Z,3.60
2018-05-25T14:30:15.666Z,3.93
2018-05-25T14:32:43.955Z,2.87
2018-05-25T14:35:12.231Z,3.27
2018-05-25T14:37:40.499Z,4.13
2018-05-25T14:40:08.812Z,4.00
2018-05-25T14:42:37.076Z,3.60
2018-05-25T14:45:05.364Z,3.23
2018-05-25T14:47:33.642Z,3.40
2018-05-25T14:50:01.935Z,3.13
2018-05-25T14:52:30.305Z,3.40
2018-05-25T14:54:58.577Z,3.63
2018-05-25T14:57:26.913Z,3.83
2018-05-25T14:59:56.246Z,3.20
2018-05-25T15:02:24.530Z,3.37
2018-05-25T15:04:52.817Z,3.20
2018-05-25T15:07:21.089Z,3.70
2018-05-25T15:09:49.351Z,4.10
2018-05-25T15:12:18.783Z,3.90
2018-05-25T15:14:47.081Z,3.60
2018-05-25T15:17:15.353Z,3.60
2018-05-25T15:19:43.634Z,3.20
2018-05-25T15:22:11.947Z,3.70
2018-05-25T15:24:40.796Z,3.20
2018-05-25T15:27:09.972Z,3.00
2018-05-25T15:29:38.249Z,4.83
2018-05-25T15:32:06.564Z,3.73
2018-05-25T15:34:34.842Z,3.50
2018-05-25T15:37:03.879Z,3.70
2018-05-25T15:39:37.888Z,3.50
2018-05-25T15:42:06.176Z,3.73
2018-05-25T15:44:34.463Z,3.67
2018-05-25T15:47:02.786Z,4.10
2018-05-25T15:49:32.147Z,5.00
2018-05-25T15:52:00.503Z,3.17
2018-05-25T15:54:29.781Z,3.70
2018-05-25T15:56:58.055Z,3.90
2018-05-25T15:59:27.095Z,3.20
2018-05-25T16:01:55.414Z,4.00
2018-05-25T16:04:24.432Z,3.30
2018-05-25T16:06:52.684Z,3.60
2018-05-25T16:09:21.069Z,3.97
2018-05-25T16:11:50.147Z,3.93
2018-05-25T16:14:18.461Z,3.73
2018-05-25T16:16:46.724Z,3.63
2018-05-25T16:19:14.989Z,3.27
2018-05-25T16:21:43.246Z,3.63
2018-05-25T16:24:11.533Z,3.20
2018-05-25T16:26:39.812Z,3.20
2018-05-25T16:29:08.615Z,3.83
2018-05-25T16:31:36.904Z,3.43
2018-05-25T16:34:06.110Z,3.03
2018-05-25T16:36:34.398Z,3.50
2018-05-25T16:39:02.671Z,3.40
2018-05-25T16:41:31.937Z,3.50
2018-05-25T16:44:00.334Z,3.80
2018-05-25T16:46:28.679Z,3.00
2018-05-25T16:48:57.715Z,3.60
2018-05-25T16:51:26.001Z,3.30
2018-05-25T16:53:54.293Z,3.93
2018-05-25T16:56:23.045Z,3.83
2018-05-25T16:58:51.345Z,3.73
2018-05-25T17:01:19.612Z,24.93
2018-05-25T17:03:50.141Z,5.00
2018-05-25T17:06:18.453Z,3.30
2018-05-25T17:08:46.785Z,3.80
2018-05-25T17:11:15.101Z,4.03
2018-05-25T17:13:44.429Z,3.60
2018-05-25T17:16:12.745Z,3.97
2018-05-25T17:18:41.035Z,4.03
2018-05-25T17:21:09.344Z,3.87
2018-05-25T17:23:38.398Z,4.13
2018-05-25T17:26:06.686Z,4.20
2018-05-25T17:28:34.972Z,6.70
2018-05-25T17:31:03.301Z,5.33
2018-05-25T17:33:31.581Z,5.93
2018-05-25T17:36:00.976Z,5.50
2018-05-25T17:38:29.260Z,4.70
2018-05-25T17:40:57.554Z,4.27
2018-05-25T17:43:25.835Z,5.33
2018-05-25T17:45:54.124Z,5.20
2018-05-25T17:48:23.193Z,6.20
2018-05-25T17:50:51.471Z,6.47
2018-05-25T17:53:19.755Z,6.40
2018-05-25T17:55:48.048Z,6.70
2018-05-25T17:58:18.674Z,5.67
2018-05-25T18:00:46.977Z,5.50
2018-05-25T18:03:15.248Z,6.90
2018-05-25T18:05:43.516Z,7.17
2018-05-25T18:08:11.815Z,5.03
2018-05-25T18:10:40.097Z,5.17
2018-05-25T18:13:09.161Z,5.73
2018-05-25T18:15:37.426Z,4.70
2018-05-25T18:18:05.685Z,5.63
2018-05-25T18:20:34.093Z,5.13
2018-05-25T18:23:02.465Z,7.03
2018-05-25T18:25:32.516Z,5.57
2018-05-25T18:28:00.808Z,15.13
2018-05-25T18:30:29.876Z,8.40
2018-05-25T18:32:58.496Z,6.43
2018-05-25T18:35:27.517Z,6.07
2018-05-25T18:37:55.798Z,5.40
2018-05-25T18:40:24.070Z,5.37
2018-05-25T18:42:52.379Z,5.90
2018-05-25T18:45:20.679Z,5.73
2018-05-25T19:05:54.460Z,6.47
2018-05-25T19:26:26.664Z,7.50
2018-05-25T19:46:58.864Z,7.70
2018-05-25T20:07:35.374Z,7.10
2018-05-25T20:28:10.328Z,7.40
2018-05-25T20:48:46.861Z,8.50
2018-05-25T21:09:21.797Z,8.00
2018-05-25T21:29:53.997Z,8.30
2018-05-25T21:50:28.496Z,8.10
2018-05-25T22:11:00.549Z,7.63
2018-05-25T22:49:51.782Z,8.10
2018-05-25T23:10:25.989Z,7.30
2018-05-25T23:30:56.945Z,7.10
2018-05-25T23:51:30.393Z,7.63
